createdAt,value
2023-05-14T00:00:47.404Z,8.50
2023-05-14T00:03:14.436Z,7.93
2023-05-14T00:05:41.097Z,7.60
2023-05-14T00:08:07.830Z,7.80
2023-05-14T00:10:34.599Z,9.15
2023-05-14T00:13:01.398Z,8.20
2023-05-14T00:15:28.224Z,9.07
2023-05-14T00:17:55.274Z,8.73
2023-05-14T00:20:22.083Z,9.18
2023-05-14T00:22:48.810Z,10.68
2023-05-14T00:25:15.329Z,8.85
2023-05-14T00:27:41.816Z,9.68
2023-05-14T00:30:08.627Z,9.07
2023-05-14T00:32:35.217Z,8.85
2023-05-14T00:35:03.492Z,9.15
2023-05-14T00:37:30.254Z,9.40
2023-05-14T00:39:57.173Z,8.80
2023-05-14T00:42:23.682Z,8.50
2023-05-14T00:44:50.489Z,8.05
2023-05-14T00:47:17.192Z,8.07
2023-05-14T00:49:44.183Z,9.20
2023-05-14T00:52:11.857Z,9.70
2023-05-14T00:54:38.648Z,9.43
2023-05-14T00:57:06.669Z,9.50
2023-05-14T00:59:33.536Z,9.93
2023-05-14T01:02:00.532Z,10.40
2023-05-14T01:04:27.789Z,9.07
2023-05-14T01:07:04.724Z,9.43
2023-05-14T01:09:44.563Z,10.13
2023-05-14T01:12:52.378Z,10.40
2023-05-14T01:15:26.519Z,9.40
2023-05-14T01:18:13.473Z,10.95
2023-05-14T01:20:41.883Z,11.10
2023-05-14T01:23:08.370Z,10.10
2023-05-14T01:25:35.609Z,10.05
2023-05-14T01:28:19.680Z,10.18
2023-05-14T01:30:50.375Z,10.05
2023-05-14T01:33:19.286Z,12.15
2023-05-14T01:35:46.272Z,9.35
2023-05-14T01:38:15.300Z,8.98
2023-05-14T01:40:41.994Z,10.43
2023-05-14T01:43:08.774Z,9.18
2023-05-14T01:45:36.569Z,10.10
2023-05-14T01:48:05.904Z,7.82
2023-05-14T01:50:33.259Z,8.75
2023-05-14T01:52:59.775Z,8.13
2023-05-14T01:55:26.769Z,8.52
2023-05-14T01:57:53.747Z,9.50
2023-05-14T02:00:22.467Z,8.77
2023-05-14T02:02:50.464Z,8.35
2023-05-14T02:05:17.138Z,9.00
2023-05-14T02:07:43.635Z,8.13
2023-05-14T02:10:11.076Z,8.95
2023-05-14T02:12:37.700Z,8.23
2023-05-14T02:15:05.040Z,9.55
2023-05-14T02:17:31.574Z,9.90
2023-05-14T02:19:58.548Z,9.15
2023-05-14T02:22:25.090Z,9.10
2023-05-14T02:24:51.990Z,8.77
2023-05-14T02:27:18.947Z,8.50
2023-05-14T02:29:45.696Z,8.75
2023-05-14T02:32:14.789Z,9.50
2023-05-14T02:34:41.507Z,8.85
2023-05-14T02:37:08.199Z,8.75
2023-05-14T02:39:34.967Z,8.80
2023-05-14T02:42:01.548Z,9.57
2023-05-14T02:44:28.019Z,8.23
2023-05-14T02:46:54.553Z,8.77
2023-05-14T02:49:21.423Z,8.43
2023-05-14T02:51:48.057Z,9.52
2023-05-14T02:54:16.464Z,8.82
2023-05-14T02:56:43.381Z,9.70
2023-05-14T02:59:10.581Z,8.25
2023-05-14T03:01:37.485Z,8.43
2023-05-14T03:04:04.750Z,7.88
2023-05-14T03:06:31.765Z,7.90
2023-05-14T03:08:58.280Z,8.13
2023-05-14T03:11:24.764Z,7.55
2023-05-14T03:13:51.511Z,8.98
2023-05-14T03:16:18.226Z,8.55
2023-05-14T03:18:45.020Z,9.02
2023-05-14T03:21:12.691Z,8.77
2023-05-14T03:23:39.303Z,8.90
2023-05-14T03:26:06.303Z,8.50
2023-05-14T03:28:33.725Z,8.43
2023-05-14T03:31:00.318Z,8.15
2023-05-14T03:33:27.123Z,9.05
2023-05-14T03:35:53.695Z,8.52
2023-05-14T03:38:20.128Z,9.68
2023-05-14T03:40:46.831Z,8.52
2023-05-14T03:43:13.589Z,8.45
2023-05-14T03:45:40.609Z,8.65
2023-05-14T03:48:07.330Z,9.05
2023-05-14T03:50:33.904Z,8.50
2023-05-14T03:53:00.422Z,9.07
2023-05-14T03:55:27.068Z,9.10
2023-05-14T03:57:53.534Z,9.48
2023-05-14T04:00:20.502Z,9.30
2023-05-14T04:02:47.111Z,10.05
2023-05-14T04:05:13.703Z,9.32
2023-05-14T04:07:40.373Z,9.23
2023-05-14T04:10:07.739Z,9.50
2023-05-14T04:12:34.182Z,9.65
2023-05-14T04:15:01.184Z,9.85
2023-05-14T04:17:27.772Z,9.60
2023-05-14T04:19:54.181Z,9.35
2023-05-14T04:22:20.736Z,10.35
2023-05-14T04:24:47.173Z,10.38
2023-05-14T04:27:21.453Z,10.23
2023-05-14T04:29:49.541Z,9.52
2023-05-14T04:32:16.862Z,10.30
2023-05-14T04:34:43.905Z,10.05
2023-05-14T04:37:10.877Z,9.98
2023-05-14T04:39:38.401Z,11.35
2023-05-14T04:42:05.699Z,9.68
2023-05-14T04:44:34.168Z,10.45
2023-05-14T04:47:00.681Z,11.15
2023-05-14T04:49:27.928Z,9.82
2023-05-14T04:51:55.375Z,10.27
2023-05-14T04:54:21.922Z,13.20
2023-05-14T04:56:48.456Z,11.23
2023-05-14T04:59:14.974Z,10.85
2023-05-14T05:01:41.832Z,9.23
2023-05-14T05:04:08.817Z,10.25
2023-05-14T05:06:35.408Z,11.25
2023-05-14T05:09:02.309Z,10.48
2023-05-14T05:11:28.986Z,12.10
2023-05-14T05:13:55.828Z,9.50
2023-05-14T05:16:22.426Z,11.05
2023-05-14T05:18:49.045Z,10.18
2023-05-14T05:21:16.282Z,9.93
2023-05-14T05:23:43.032Z,10.73
2023-05-14T05:26:09.703Z,9.93
2023-05-14T05:28:36.159Z,9.30
2023-05-14T05:31:02.947Z,9.73
2023-05-14T05:33:29.642Z,9.75
2023-05-14T05:35:56.348Z,10.65
2023-05-14T05:38:22.831Z,9.50
2023-05-14T05:40:49.620Z,9.52
2023-05-14T05:43:16.729Z,9.48
2023-05-14T05:45:43.858Z,8.80
2023-05-14T05:48:10.596Z,9.40
2023-05-14T05:50:37.415Z,8.65
2023-05-14T05:53:04.100Z,9.57
2023-05-14T05:55:30.707Z,9.25
2023-05-14T05:57:57.292Z,10.05
2023-05-14T06:00:24.692Z,10.25
2023-05-14T06:02:51.549Z,9.30
2023-05-14T06:05:19.321Z,11.38
2023-05-14T06:07:45.825Z,9.88
2023-05-14T06:10:12.298Z,8.85
2023-05-14T06:12:39.350Z,9.05
2023-05-14T06:15:06.830Z,8.60
2023-05-14T06:17:33.805Z,8.48
2023-05-14T06:20:00.347Z,8.50
2023-05-14T06:22:26.875Z,8.68
2023-05-14T06:24:53.546Z,7.68
2023-05-14T06:27:20.283Z,7.05
2023-05-14T06:29:47.198Z,7.32
2023-05-14T06:32:15.638Z,6.55
2023-05-14T06:34:43.082Z,6.35
2023-05-14T06:37:10.788Z,5.20
2023-05-14T06:39:38.039Z,4.40
2023-05-14T06:42:05.129Z,4.05
2023-05-14T06:44:32.281Z,4.28
2023-05-14T06:46:58.891Z,4.78
2023-05-14T06:49:25.407Z,3.90
2023-05-14T06:51:52.401Z,3.65
2023-05-14T06:54:20.719Z,4.43
2023-05-14T06:56:47.225Z,3.70
2023-05-14T06:59:13.823Z,3.60
2023-05-14T07:01:43.282Z,3.85
2023-05-14T07:04:10.286Z,4.18
2023-05-14T07:06:36.889Z,3.97
2023-05-14T07:09:03.671Z,4.10
2023-05-14T07:11:30.595Z,3.83
2023-05-14T07:13:57.029Z,4.18
2023-05-14T07:16:23.537Z,5.03
2023-05-14T07:18:50.162Z,4.35
2023-05-14T07:21:17.072Z,4.38
2023-05-14T07:23:43.708Z,3.85
2023-05-14T07:26:10.540Z,3.88
2023-05-14T07:28:37.294Z,3.40
2023-05-14T07:31:09.371Z,4.10
2023-05-14T07:33:36.609Z,4.10
2023-05-14T07:36:03.333Z,4.70
2023-05-14T07:38:30.141Z,4.90
2023-05-14T07:40:56.577Z,4.65
2023-05-14T07:43:23.069Z,4.22
2023-05-14T07:45:49.579Z,4.05
2023-05-14T07:48:16.374Z,4.47
2023-05-14T07:50:42.913Z,4.10
2023-05-14T07:53:09.812Z,4.35
2023-05-14T07:55:36.887Z,4.43
2023-05-14T07:58:03.426Z,4.57
2023-05-14T08:00:29.972Z,4.15
2023-05-14T08:02:56.897Z,4.80
2023-05-14T08:05:23.602Z,4.75
2023-05-14T08:07:50.081Z,4.80
2023-05-14T08:10:16.750Z,5.85
2023-05-14T08:12:43.269Z,4.80
2023-05-14T08:15:10.443Z,5.88
2023-05-14T08:17:37.003Z,4.53
2023-05-14T08:20:06.257Z,4.20
2023-05-14T08:22:32.816Z,4.72
2023-05-14T08:25:00.984Z,4.57
2023-05-14T08:27:28.192Z,3.78
2023-05-14T08:29:54.644Z,4.55
2023-05-14T08:32:23.753Z,4.55
2023-05-14T08:34:51.115Z,4.43
2023-05-14T08:37:17.948Z,4.68
2023-05-14T08:39:44.879Z,4.25
2023-05-14T08:42:14.053Z,4.97
2023-05-14T08:44:49.473Z,4.57
2023-05-14T08:47:21.766Z,3.97
2023-05-14T08:49:55.194Z,4.38
2023-05-14T08:52:22.780Z,4.38
2023-05-14T08:54:51.337Z,4.57
2023-05-14T08:57:18.762Z,5.43
2023-05-14T08:59:45.635Z,4.53
2023-05-14T09:02:15.504Z,4.97
2023-05-14T09:04:43.327Z,5.05
2023-05-14T09:07:11.460Z,4.53
2023-05-14T09:09:38.334Z,4.90
2023-05-14T09:12:06.300Z,5.38
2023-05-14T09:14:33.668Z,4.30
2023-05-14T09:17:00.628Z,5.45
2023-05-14T09:19:27.402Z,5.03
2023-05-14T09:21:57.606Z,5.32
2023-05-14T09:24:29.051Z,4.80
2023-05-14T09:26:58.710Z,5.55
2023-05-14T09:29:29.350Z,5.90
2023-05-14T09:31:57.199Z,5.35
2023-05-14T09:34:32.205Z,5.07
2023-05-14T09:37:04.412Z,6.00
2023-05-14T09:39:32.889Z,4.70
2023-05-14T09:41:59.686Z,5.93
2023-05-14T09:44:27.591Z,5.20
2023-05-14T09:46:54.676Z,4.32
2023-05-14T09:49:22.302Z,5.82
2023-05-14T09:51:49.633Z,5.72
2023-05-14T09:54:16.622Z,5.72
2023-05-14T09:56:43.981Z,5.63
2023-05-14T09:59:11.073Z,5.22
2023-05-14T10:01:38.574Z,5.70
2023-05-14T10:04:07.644Z,5.43
2023-05-14T10:06:37.601Z,4.50
2023-05-14T10:09:06.186Z,4.70
2023-05-14T10:11:36.505Z,4.63
2023-05-14T10:14:18.481Z,4.82
2023-05-14T10:16:51.643Z,4.60
2023-05-14T10:19:21.231Z,4.43
2023-05-14T10:21:53.462Z,3.75
2023-05-14T10:24:20.611Z,4.70
2023-05-14T10:26:47.823Z,3.78
2023-05-14T10:29:14.649Z,4.15
2023-05-14T10:31:54.611Z,4.90
2023-05-14T10:34:34.681Z,4.43
2023-05-14T10:37:02.614Z,4.55
2023-05-14T10:42:43.742Z,3.78
2023-05-14T10:45:13.240Z,3.45
2023-05-14T10:47:42.970Z,4.38
2023-05-14T10:50:12.013Z,4.47
2023-05-14T10:52:42.460Z,5.18
2023-05-14T10:55:10.321Z,5.35
2023-05-14T11:00:07.740Z,4.45
2023-05-14T11:02:41.778Z,4.25
2023-05-14T11:05:17.889Z,4.28
2023-05-14T11:07:46.824Z,4.78
2023-05-14T11:10:15.517Z,4.55
2023-05-14T11:12:44.328Z,3.85
2023-05-14T11:15:22.629Z,3.97
2023-05-14T11:17:50.702Z,4.38
2023-05-14T11:20:18.126Z,4.25
2023-05-14T11:22:46.704Z,4.10
2023-05-14T11:25:14.896Z,4.93
2023-05-14T11:27:43.956Z,4.25
2023-05-14T11:30:18.284Z,4.63
2023-05-14T11:32:50.174Z,4.22
2023-05-14T11:35:17.858Z,5.15
2023-05-14T11:37:51.587Z,4.50
2023-05-14T11:40:18.931Z,4.40
2023-05-14T11:42:45.882Z,4.95
2023-05-14T11:45:14.147Z,5.57
2023-05-14T11:47:42.577Z,4.35
2023-05-14T11:50:09.975Z,4.25
2023-05-14T11:52:40.998Z,4.85
2023-05-14T11:55:13.961Z,5.40
2023-05-14T11:57:41.367Z,4.78
2023-05-14T12:00:21.949Z,5.07
2023-05-14T12:02:51.872Z,4.10
2023-05-14T12:05:18.948Z,4.68
2023-05-14T12:07:46.210Z,4.93
2023-05-14T12:10:13.763Z,3.80
2023-05-14T12:12:45.589Z,3.92
2023-05-14T12:15:13.537Z,5.57
2023-05-14T12:17:40.662Z,4.38
2023-05-14T12:20:11.948Z,4.47
2023-05-14T12:22:38.754Z,4.35
2023-05-14T12:25:12.306Z,4.60
2023-05-14T12:27:39.162Z,4.63
2023-05-14T12:30:20.643Z,3.92
2023-05-14T12:32:51.968Z,4.68
2023-05-14T12:35:18.802Z,5.47
2023-05-14T12:37:45.449Z,5.78
2023-05-14T12:40:12.182Z,5.15
2023-05-14T12:42:38.646Z,5.50
2023-05-14T12:45:08.120Z,5.63
2023-05-14T12:47:35.072Z,5.05
2023-05-14T12:50:02.385Z,5.60
2023-05-14T12:52:37.678Z,6.47
2023-05-14T12:55:07.461Z,5.10
2023-05-14T12:57:35.398Z,4.60
2023-05-14T13:00:06.576Z,4.75
2023-05-14T13:02:34.080Z,4.88
2023-05-14T13:05:10.441Z,4.53
2023-05-14T13:07:37.648Z,4.50
2023-05-14T13:10:05.855Z,4.00
2023-05-14T13:12:33.012Z,5.03
2023-05-14T13:14:59.757Z,4.55
2023-05-14T13:17:26.729Z,4.90
2023-05-14T13:19:53.845Z,4.63
2023-05-14T13:22:20.772Z,4.13
2023-05-14T13:24:47.998Z,4.80
2023-05-14T13:27:17.644Z,4.50
2023-05-14T13:29:44.250Z,5.32
2023-05-14T13:32:10.946Z,5.07
2023-05-14T13:34:37.580Z,4.75
2023-05-14T13:37:04.354Z,5.20
2023-05-14T13:39:31.456Z,5.00
2023-05-14T13:41:58.262Z,5.35
2023-05-14T13:44:25.565Z,6.00
2023-05-14T13:46:52.793Z,5.30
2023-05-14T13:49:20.269Z,4.70
2023-05-14T13:51:46.789Z,5.15
2023-05-14T13:54:13.879Z,5.63
2023-05-14T13:56:46.578Z,6.15
2023-05-14T13:59:13.485Z,5.47
2023-05-14T14:01:40.350Z,5.60
2023-05-14T14:04:08.038Z,6.53
2023-05-14T14:06:34.693Z,5.75
2023-05-14T14:09:02.131Z,5.97
2023-05-14T14:11:28.892Z,5.40
2023-05-14T14:13:55.779Z,5.47
2023-05-14T14:16:22.621Z,5.90
2023-05-14T14:18:49.510Z,4.75
2023-05-14T14:21:19.099Z,5.13
2023-05-14T14:23:49.123Z,4.20
2023-05-14T14:26:15.982Z,4.57
2023-05-14T14:28:42.668Z,4.63
2023-05-14T14:31:09.294Z,4.78
2023-05-14T14:33:35.980Z,4.68
2023-05-14T14:36:03.154Z,4.97
2023-05-14T14:38:29.829Z,4.78
2023-05-14T14:40:57.533Z,4.75
2023-05-14T14:43:24.660Z,4.93
2023-05-14T14:45:53.309Z,4.93
2023-05-14T14:48:24.468Z,4.55
2023-05-14T14:50:52.855Z,4.20
2023-05-14T14:53:23.493Z,4.65
2023-05-14T14:55:51.245Z,4.57
2023-05-14T14:58:19.609Z,4.70
2023-05-14T15:00:47.454Z,4.70
2023-05-14T15:03:15.768Z,4.03
2023-05-14T15:05:42.951Z,4.10
2023-05-14T15:08:10.035Z,4.97
2023-05-14T15:10:38.223Z,4.25
2023-05-14T15:13:07.083Z,4.45
2023-05-14T15:15:35.724Z,4.47
2023-05-14T15:18:03.971Z,4.93
2023-05-14T15:20:31.359Z,4.40
2023-05-14T15:22:59.253Z,5.15
2023-05-14T15:25:27.092Z,5.90
2023-05-14T15:27:54.162Z,4.65
2023-05-14T15:30:21.964Z,5.90
2023-05-14T15:32:48.811Z,5.90
2023-05-14T15:35:15.909Z,7.22
2023-05-14T15:37:46.115Z,13.27
2023-05-14T15:40:13.268Z,6.85
2023-05-14T15:42:42.441Z,5.88
2023-05-14T15:45:13.844Z,6.10
2023-05-14T15:47:42.136Z,6.00
2023-05-14T15:50:09.576Z,7.50
2023-05-14T15:52:36.612Z,7.68
2023-05-14T15:55:06.456Z,6.65
2023-05-14T15:57:33.731Z,11.85
2023-05-14T16:00:00.503Z,12.35
2023-05-14T16:02:30.461Z,10.20
2023-05-14T16:04:57.391Z,11.57
2023-05-14T16:07:24.174Z,7.50
2023-05-14T16:09:51.273Z,6.88
2023-05-14T16:12:19.034Z,6.82
2023-05-14T16:14:46.897Z,5.43
2023-05-14T16:17:14.042Z,5.15
2023-05-14T16:19:40.734Z,5.13
2023-05-14T16:22:07.565Z,5.32
2023-05-14T16:24:34.198Z,5.63
2023-05-14T16:27:00.936Z,5.30
2023-05-14T16:29:27.947Z,5.47
2023-05-14T16:31:54.977Z,5.63
2023-05-14T16:34:22.065Z,7.32
2023-05-14T16:36:49.848Z,8.07
2023-05-14T16:39:16.634Z,7.18
2023-05-14T16:41:43.354Z,6.32
2023-05-14T16:44:09.948Z,6.22
2023-05-14T16:46:36.773Z,6.72
2023-05-14T16:49:03.507Z,6.40
2023-05-14T16:51:30.112Z,6.68
2023-05-14T16:53:56.797Z,6.38
2023-05-14T16:56:23.416Z,6.03
2023-05-14T16:58:50.393Z,7.03
2023-05-14T17:01:17.452Z,7.55
2023-05-14T17:03:46.370Z,6.53
2023-05-14T17:06:12.858Z,7.88
2023-05-14T17:08:40.794Z,6.85
2023-05-14T17:13:34.161Z,7.53
2023-05-14T17:16:02.048Z,6.15
2023-05-14T17:18:28.920Z,8.52
2023-05-14T17:20:55.641Z,6.03
2023-05-14T17:23:22.414Z,7.32
2023-05-14T17:25:49.162Z,6.78
2023-05-14T17:28:15.812Z,5.65
2023-05-14T17:30:42.737Z,6.63
2023-05-14T17:33:09.917Z,7.72
2023-05-14T17:35:37.400Z,7.60
2023-05-14T17:38:04.613Z,6.60
2023-05-14T17:40:31.204Z,6.60
2023-05-14T17:42:58.246Z,6.78
2023-05-14T17:45:25.353Z,5.82
2023-05-14T17:47:53.427Z,5.53
2023-05-14T17:50:20.800Z,5.55
2023-05-14T17:52:48.413Z,5.43
2023-05-14T17:55:15.291Z,5.05
2023-05-14T17:57:42.289Z,5.47
2023-05-14T18:00:09.299Z,5.13
2023-05-14T18:02:36.176Z,5.10
2023-05-14T18:05:03.109Z,5.45
2023-05-14T18:09:57.748Z,4.90
2023-05-14T18:12:27.532Z,5.55
2023-05-14T18:14:54.479Z,5.25
2023-05-14T18:17:22.005Z,4.40
2023-05-14T18:19:48.962Z,5.78
2023-05-14T18:22:16.079Z,5.40
2023-05-14T18:24:44.354Z,6.53
2023-05-14T18:27:11.222Z,5.55
2023-05-14T18:29:38.299Z,5.18
2023-05-14T18:32:05.823Z,6.47
2023-05-14T18:34:32.585Z,5.32
2023-05-14T18:36:59.404Z,5.32
2023-05-14T18:39:27.097Z,5.35
2023-05-14T18:41:53.978Z,4.93
2023-05-14T18:44:20.785Z,4.55
2023-05-14T18:46:47.723Z,4.90
2023-05-14T18:49:14.257Z,4.40
2023-05-14T18:51:42.178Z,4.90
2023-05-14T18:54:08.618Z,5.10
2023-05-14T18:56:36.835Z,4.32
2023-05-14T18:59:04.760Z,4.57
2023-05-14T19:01:31.507Z,5.00
2023-05-14T19:03:58.435Z,4.20
2023-05-14T19:06:25.220Z,4.68
2023-05-14T19:08:52.062Z,5.25
2023-05-14T19:11:18.671Z,4.63
2023-05-14T19:13:46.746Z,4.85
2023-05-14T19:18:40.131Z,4.72
2023-05-14T19:21:06.735Z,4.70
2023-05-14T19:23:33.277Z,5.53
2023-05-14T19:25:59.997Z,4.15
2023-05-14T19:28:26.574Z,5.45
2023-05-14T19:30:53.855Z,3.42
2023-05-14T19:33:20.500Z,3.40
2023-05-14T19:35:47.633Z,3.35
2023-05-14T19:38:15.114Z,4.55
2023-05-14T19:40:42.970Z,4.00
2023-05-14T19:43:13.265Z,3.92
2023-05-14T19:45:40.226Z,3.53
2023-05-14T19:48:06.904Z,4.13
2023-05-14T19:50:34.475Z,3.72
2023-05-14T19:53:01.268Z,3.95
2023-05-14T19:55:27.877Z,4.03
2023-05-14T19:57:54.505Z,3.80
2023-05-14T20:00:23.065Z,4.70
2023-05-14T20:03:20.447Z,4.20
2023-05-14T20:05:49.399Z,4.57
2023-05-14T20:08:16.844Z,3.83
2023-05-14T20:10:44.797Z,4.70
2023-05-14T20:13:11.563Z,4.68
2023-05-14T20:15:39.806Z,4.38
2023-05-14T20:18:06.852Z,5.00
2023-05-14T20:20:34.077Z,4.40
2023-05-14T20:23:00.876Z,5.30
2023-05-14T20:25:28.621Z,5.10
2023-05-14T20:27:55.655Z,5.88
2023-05-14T20:30:23.022Z,6.18
2023-05-14T20:32:49.880Z,5.70
2023-05-14T20:35:16.610Z,5.53
2023-05-14T20:37:46.078Z,5.18
2023-05-14T20:40:12.787Z,5.20
2023-05-14T20:42:39.773Z,5.80
2023-05-14T20:45:07.117Z,5.35
2023-05-14T20:47:34.295Z,5.63
2023-05-14T20:50:01.217Z,6.45
2023-05-14T20:52:28.115Z,5.68
2023-05-14T20:54:54.801Z,5.63
2023-05-14T20:57:22.976Z,6.57
2023-05-14T21:04:42.902Z,5.70
2023-05-14T21:07:09.665Z,6.63
2023-05-14T21:09:36.578Z,6.50
2023-05-14T21:12:03.232Z,6.72
2023-05-14T21:14:29.739Z,6.30
2023-05-14T21:16:56.259Z,6.45
2023-05-14T21:19:23.295Z,6.30
2023-05-14T21:21:49.841Z,6.93
2023-05-14T21:24:19.256Z,7.10
2023-05-14T21:26:46.305Z,7.28
2023-05-14T21:29:12.792Z,7.63
2023-05-14T21:31:39.437Z,7.85
2023-05-14T21:34:06.043Z,7.72
2023-05-14T21:36:32.535Z,7.43
2023-05-14T21:38:59.053Z,7.07
2023-05-14T21:41:25.618Z,6.97
2023-05-14T21:43:52.131Z,6.88
2023-05-14T21:46:21.613Z,7.57
2023-05-14T21:48:48.278Z,6.95
2023-05-14T21:51:14.911Z,7.20
2023-05-14T21:53:41.376Z,7.40
2023-05-14T21:56:08.232Z,6.95
2023-05-14T21:58:35.980Z,8.45
2023-05-14T22:01:02.727Z,7.20
2023-05-14T22:03:29.315Z,7.35
2023-05-14T22:05:56.360Z,10.32
2023-05-14T22:08:23.674Z,11.65
2023-05-14T22:10:51.679Z,12.88
2023-05-14T22:13:18.429Z,12.10
2023-05-14T22:15:44.995Z,11.27
2023-05-14T22:18:12.970Z,11.82
2023-05-14T22:20:41.495Z,11.65
2023-05-14T22:23:08.248Z,12.60
2023-05-14T22:25:34.851Z,12.80
2023-05-14T22:28:01.478Z,12.77
2023-05-14T22:30:28.497Z,11.80
2023-05-14T22:32:54.929Z,12.70
2023-05-14T22:35:21.504Z,11.80
2023-05-14T22:37:48.291Z,11.75
2023-05-14T22:40:14.844Z,11.90
2023-05-14T22:42:41.677Z,12.40
2023-05-14T22:45:08.832Z,11.32
2023-05-14T22:47:35.414Z,9.75
2023-05-14T22:50:02.117Z,9.00
2023-05-14T22:52:28.776Z,8.57
2023-05-14T22:54:55.284Z,6.82
2023-05-14T22:57:21.874Z,7.65
2023-05-14T22:59:48.303Z,8.23
2023-05-14T23:02:15.207Z,8.00
2023-05-14T23:04:41.901Z,7.30
2023-05-14T23:07:08.452Z,7.40
2023-05-14T23:09:36.360Z,6.10
2023-05-14T23:14:29.807Z,7.88
2023-05-14T23:16:57.576Z,12.18
2023-05-14T23:19:24.118Z,12.50
2023-05-14T23:21:51.011Z,13.15
2023-05-14T23:24:17.761Z,13.07
2023-05-14T23:26:44.545Z,14.55
2023-05-14T23:29:11.100Z,14.35
2023-05-14T23:31:38.649Z,14.07
2023-05-14T23:34:05.269Z,14.52
2023-05-14T23:36:32.859Z,13.70
2023-05-14T23:38:59.767Z,15.18
2023-05-14T23:41:26.723Z,13.40
2023-05-14T23:43:55.302Z,14.13
2023-05-14T23:46:22.384Z,13.52
2023-05-14T23:48:49.064Z,14.25
2023-05-14T23:51:15.579Z,15.35
2023-05-14T23:53:42.356Z,13.20
2023-05-14T23:56:09.014Z,13.48
2023-05-14T23:58:35.624Z,12.77
